createdAt,value
2022-10-10T00:04:59.114Z,11.22
2022-10-10T00:09:59.036Z,11.21
2022-10-10T00:14:59.044Z,11.14
2022-10-10T00:19:58.985Z,10.97
2022-10-10T00:24:58.946Z,10.89
2022-10-10T00:29:58.842Z,10.66
2022-10-10T00:34:58.813Z,10.47
2022-10-10T00:39:58.732Z,10.42
2022-10-10T00:44:58.679Z,10.36
2022-10-10T00:49:58.602Z,10.40
2022-10-10T00:54:58.559Z,10.34
2022-10-10T00:59:58.477Z,10.26
2022-10-10T01:04:58.553Z,10.42
2022-10-10T01:09:58.478Z,10.33
2022-10-10T01:14:58.426Z,10.32
2022-10-10T01:19:58.339Z,10.38
2022-10-10T01:24:58.222Z,10.45
2022-10-10T01:29:58.250Z,10.23
2022-10-10T01:34:58.212Z,10.14
2022-10-10T01:39:58.131Z,10.14
2022-10-10T01:44:58.028Z,10.15
2022-10-10T01:49:57.981Z,10.18
2022-10-10T01:54:57.890Z,10.17
2022-10-10T01:59:57.850Z,10.07
2022-10-10T02:04:57.770Z,10.08
2022-10-10T02:09:57.778Z,10.01
2022-10-10T02:14:57.724Z,10.07
2022-10-10T02:19:57.667Z,9.86
2022-10-10T02:24:57.617Z,9.99
2022-10-10T02:29:57.510Z,9.91
2022-10-10T02:34:57.435Z,9.91
2022-10-10T02:39:57.465Z,9.93
2022-10-10T02:44:57.511Z,9.93
2022-10-10T02:49:57.291Z,9.87
2022-10-10T02:54:57.202Z,9.79
2022-10-10T02:59:57.232Z,9.78
2022-10-10T03:04:57.122Z,9.72
2022-10-10T03:09:57.076Z,9.74
2022-10-10T03:14:57.027Z,9.68
2022-10-10T03:19:56.980Z,9.56
2022-10-10T03:24:57.002Z,9.48
2022-10-10T03:29:56.876Z,9.47
2022-10-10T03:35:00.184Z,9.43
2022-10-10T03:39:56.739Z,9.40
2022-10-10T03:44:56.735Z,9.36
2022-10-10T03:49:56.669Z,9.36
2022-10-10T03:54:56.615Z,9.48
2022-10-10T03:59:56.531Z,9.38
2022-10-10T04:04:56.459Z,9.39
2022-10-10T04:09:56.414Z,9.31
2022-10-10T04:14:56.367Z,9.21
2022-10-10T04:19:56.303Z,9.15
2022-10-10T04:24:56.234Z,9.15
2022-10-10T04:29:56.208Z,9.14
2022-10-10T04:34:56.162Z,9.05
2022-10-10T04:39:56.071Z,9.04
2022-10-10T04:44:56.020Z,9.08
2022-10-10T04:49:57.058Z,9.08
2022-10-10T04:54:55.973Z,9.04
2022-10-10T04:59:55.942Z,8.98
2022-10-10T05:04:55.828Z,8.96
2022-10-10T05:09:55.759Z,8.87
2022-10-10T05:14:55.742Z,8.79
2022-10-10T05:19:55.616Z,8.80
2022-10-10T05:24:55.604Z,8.74
2022-10-10T05:29:55.550Z,8.74
2022-10-10T05:34:55.490Z,8.73
2022-10-10T05:39:55.473Z,8.66
2022-10-10T05:44:55.479Z,8.62
2022-10-10T05:49:55.317Z,8.65
2022-10-10T05:54:55.247Z,8.77
2022-10-10T05:59:55.316Z,8.76
2022-10-10T06:04:55.155Z,8.79
2022-10-10T06:09:55.050Z,8.83
2022-10-10T06:14:55.067Z,8.98
2022-10-10T06:19:55.002Z,9.05
2022-10-10T06:24:54.877Z,9.15
2022-10-10T06:29:54.836Z,9.23
2022-10-10T06:34:54.798Z,9.31
2022-10-10T06:39:54.796Z,9.38
2022-10-10T06:44:54.728Z,9.43
2022-10-10T06:49:54.655Z,9.51
2022-10-10T06:54:54.630Z,9.71
2022-10-10T06:59:54.555Z,9.79
2022-10-10T07:04:55.667Z,9.93
2022-10-10T07:09:54.571Z,10.12
2022-10-10T07:14:54.387Z,10.41
2022-10-10T07:19:54.397Z,10.70
2022-10-10T07:24:54.250Z,10.94
2022-10-10T07:29:54.256Z,11.21
2022-10-10T07:34:54.129Z,11.40
2022-10-10T07:39:54.167Z,11.85
2022-10-10T07:44:54.034Z,12.13
2022-10-10T07:49:53.974Z,12.47
2022-10-10T07:54:53.910Z,12.85
2022-10-10T07:59:53.900Z,13.15
2022-10-10T08:04:53.791Z,13.64
2022-10-10T08:09:53.793Z,14.02
2022-10-10T08:14:53.731Z,14.20
2022-10-10T08:19:53.660Z,14.42
2022-10-10T08:24:56.968Z,14.61
2022-10-10T08:29:53.537Z,14.73
2022-10-10T08:34:53.531Z,15.01
2022-10-10T08:39:53.403Z,15.23
2022-10-10T08:44:53.350Z,15.34
2022-10-10T08:49:53.281Z,15.35
2022-10-10T08:54:58.189Z,15.57
2022-10-10T09:04:53.110Z,16.02
2022-10-10T09:09:53.069Z,16.21
2022-10-10T09:14:53.015Z,15.92
2022-10-10T09:19:53.045Z,16.07
2022-10-10T09:24:52.997Z,16.24
2022-10-10T09:29:52.926Z,16.33
2022-10-10T09:34:53.362Z,16.15
2022-10-10T09:39:52.801Z,16.61
2022-10-10T09:44:52.746Z,16.86
2022-10-10T09:49:52.709Z,17.18
2022-10-10T09:54:52.623Z,17.46
2022-10-10T10:00:04.491Z,17.64
2022-10-10T10:04:52.467Z,18.10
2022-10-10T10:09:52.391Z,18.88
2022-10-10T10:14:52.345Z,19.39
2022-10-10T10:19:52.299Z,19.36
2022-10-10T10:24:52.267Z,19.36
2022-10-10T10:29:52.177Z,19.48
2022-10-10T10:34:52.151Z,19.54
2022-10-10T10:39:52.088Z,19.66
2022-10-10T10:44:52.146Z,19.78
2022-10-10T10:49:52.061Z,19.99
2022-10-10T10:54:52.020Z,20.16
2022-10-10T11:00:26.321Z,19.86
2022-10-10T11:05:20.603Z,19.95
2022-10-10T11:09:52.728Z,19.68
2022-10-10T11:14:52.814Z,19.87
2022-10-10T11:19:51.719Z,19.74
2022-10-10T11:24:51.598Z,19.83
2022-10-10T11:29:51.534Z,19.74
2022-10-10T11:34:51.495Z,19.74
2022-10-10T11:39:51.419Z,20.01
2022-10-10T11:44:51.386Z,20.14
2022-10-10T11:49:51.324Z,20.11
2022-10-10T11:54:51.274Z,19.84
2022-10-10T11:59:51.215Z,19.92
2022-10-10T12:04:51.279Z,19.94
2022-10-10T12:09:51.203Z,20.06
2022-10-10T12:14:52.084Z,19.92
2022-10-10T12:19:51.097Z,19.81
2022-10-10T12:24:51.042Z,19.95
2022-10-10T12:29:51.521Z,19.71
2022-10-10T12:34:50.961Z,19.84
2022-10-10T12:39:50.793Z,19.95
2022-10-10T12:44:50.739Z,20.02
2022-10-10T12:49:50.688Z,20.01
2022-10-10T12:54:50.634Z,20.01
2022-10-10T12:59:50.594Z,19.95
2022-10-10T13:04:50.514Z,20.03
2022-10-10T13:09:50.466Z,20.17
2022-10-10T13:14:50.442Z,20.29
2022-10-10T13:19:50.481Z,20.36
2022-10-10T13:24:50.425Z,20.29
2022-10-10T13:29:50.357Z,20.35
2022-10-10T13:34:51.199Z,20.23
2022-10-10T13:39:50.143Z,20.20
2022-10-10T13:44:50.160Z,20.13
2022-10-10T13:49:50.136Z,20.10
2022-10-10T13:54:50.034Z,20.01
2022-10-10T13:59:49.991Z,19.78
2022-10-10T14:04:49.863Z,19.80
2022-10-10T14:09:53.370Z,19.83
2022-10-10T14:14:49.761Z,19.76
2022-10-10T14:19:49.691Z,19.99
2022-10-10T14:24:49.644Z,20.06
2022-10-10T14:29:49.587Z,20.05
2022-10-10T14:34:49.524Z,20.16
2022-10-10T14:39:49.484Z,20.13
2022-10-10T14:44:49.413Z,19.94
2022-10-10T14:49:50.408Z,19.71
2022-10-10T14:54:49.425Z,19.54
2022-10-10T14:59:50.362Z,19.41
2022-10-10T15:04:49.296Z,19.29
2022-10-10T15:10:27.464Z,19.10
2022-10-10T15:14:50.117Z,18.94
2022-10-10T15:19:49.057Z,18.75
2022-10-10T15:24:48.980Z,18.52
2022-10-10T15:29:49.012Z,18.39
2022-10-10T15:34:48.959Z,18.17
2022-10-10T15:39:48.781Z,18.17
2022-10-10T15:44:48.770Z,18.08
2022-10-10T15:49:48.677Z,17.95
2022-10-10T15:54:48.639Z,17.92
2022-10-10T15:59:57.433Z,17.86
2022-10-10T16:04:48.509Z,17.75
2022-10-10T16:09:48.479Z,17.78
2022-10-10T16:14:48.434Z,17.74
2022-10-10T16:19:48.376Z,17.52
2022-10-10T16:25:10.361Z,17.40
2022-10-10T16:29:49.265Z,17.30
2022-10-10T16:34:48.299Z,17.19
2022-10-10T16:39:48.280Z,17.23
2022-10-10T16:44:48.212Z,17.21
2022-10-10T16:49:48.076Z,17.00
2022-10-10T16:54:51.971Z,16.67
2022-10-10T16:59:48.040Z,16.43
2022-10-10T17:04:47.974Z,16.42
2022-10-10T17:09:47.913Z,16.17
2022-10-10T17:14:47.845Z,16.07
2022-10-10T17:19:47.789Z,16.04
2022-10-10T17:24:47.691Z,15.78
2022-10-10T17:29:47.572Z,15.86
2022-10-10T17:34:47.521Z,15.76
2022-10-10T17:39:47.473Z,15.69
2022-10-10T17:44:52.481Z,15.60
2022-10-10T17:49:48.365Z,15.67
2022-10-10T17:54:47.314Z,15.49
2022-10-10T17:59:47.326Z,15.14
2022-10-10T18:04:47.271Z,14.80
2022-10-10T18:09:47.185Z,14.69
2022-10-10T18:14:47.162Z,14.62
2022-10-10T18:19:47.009Z,14.50
2022-10-10T18:24:48.010Z,14.35
2022-10-10T18:29:47.034Z,14.37
2022-10-10T18:34:46.979Z,14.24
2022-10-10T18:39:46.803Z,14.10
2022-10-10T18:44:46.811Z,14.20
2022-10-10T18:49:46.715Z,14.06
2022-10-10T18:54:46.671Z,13.95
2022-10-10T18:59:46.655Z,13.85
2022-10-10T19:04:46.679Z,13.87
2022-10-10T19:09:46.935Z,13.89
2022-10-10T19:14:46.740Z,13.78
2022-10-10T19:19:46.481Z,13.79
2022-10-10T19:24:46.401Z,13.69
2022-10-10T19:29:46.344Z,13.75
2022-10-10T19:34:46.223Z,13.57
2022-10-10T19:39:46.170Z,13.36
2022-10-10T19:44:46.182Z,13.15
2022-10-10T19:49:46.064Z,13.07
2022-10-10T19:54:46.040Z,12.86
2022-10-10T19:59:46.089Z,12.75
2022-10-10T20:04:46.038Z,12.59
2022-10-10T20:09:45.972Z,12.41
2022-10-10T20:14:45.868Z,12.19
2022-10-10T20:19:46.881Z,12.01
2022-10-10T20:24:45.671Z,11.79
2022-10-10T20:29:45.597Z,11.67
2022-10-10T20:34:45.559Z,11.51
2022-10-10T20:39:45.487Z,11.40
2022-10-10T20:44:45.520Z,11.32
2022-10-10T20:49:45.384Z,11.21
2022-10-10T20:54:45.316Z,11.06
2022-10-10T20:59:45.244Z,10.88
2022-10-10T21:04:45.304Z,10.79
2022-10-10T21:09:45.237Z,10.64
2022-10-10T21:14:45.181Z,10.48
2022-10-10T21:19:45.127Z,10.30
2022-10-10T21:24:45.166Z,10.20
2022-10-10T21:29:45.112Z,10.09
2022-10-10T21:34:45.964Z,9.94
2022-10-10T21:39:44.834Z,9.81
2022-10-10T21:44:44.775Z,9.71
2022-10-10T21:49:44.710Z,9.68
2022-10-10T21:54:44.676Z,9.58
2022-10-10T21:59:54.440Z,9.47
2022-10-10T22:04:44.568Z,9.40
2022-10-10T22:09:44.497Z,9.32
2022-10-10T22:14:44.531Z,9.17
2022-10-10T22:19:44.455Z,9.08
2022-10-10T22:24:44.418Z,8.98
2022-10-10T22:29:44.354Z,8.86
2022-10-10T22:34:44.288Z,8.71
2022-10-10T22:39:44.197Z,8.59
2022-10-10T22:44:44.119Z,8.53
2022-10-10T22:49:44.028Z,8.40
2022-10-10T22:54:43.996Z,8.34
2022-10-10T22:59:43.940Z,8.29
2022-10-10T23:04:43.907Z,8.18
2022-10-10T23:09:43.829Z,8.12
2022-10-10T23:14:43.768Z,8.08
2022-10-10T23:19:43.736Z,8.01
2022-10-10T23:24:43.667Z,8.00
2022-10-10T23:29:43.636Z,7.90
2022-10-10T23:34:43.561Z,7.83
2022-10-10T23:39:43.694Z,7.79
2022-10-10T23:44:43.634Z,7.69
2022-10-10T23:49:43.589Z,7.61
2022-10-10T23:54:43.412Z,7.57
2022-10-10T23:59:43.352Z,7.45
